createdAt,value
2022-11-21T00:00:22.620Z,92.84
2022-11-21T00:05:44.189Z,92.73
2022-11-21T00:10:50.152Z,92.81
2022-11-21T00:15:56.097Z,92.85
2022-11-21T00:21:07.392Z,93.08
2022-11-21T00:26:14.893Z,93.50
2022-11-21T00:31:22.642Z,93.63
2022-11-21T00:36:28.277Z,93.75
2022-11-21T00:41:34.244Z,93.95
2022-11-21T00:46:39.900Z,94.12
2022-11-21T00:51:45.733Z,94.37
2022-11-21T00:56:51.572Z,94.58
2022-11-21T01:01:57.331Z,94.79
2022-11-21T01:07:03.497Z,94.69
2022-11-21T01:12:09.523Z,94.66
2022-11-21T01:17:15.484Z,94.57
2022-11-21T01:22:21.128Z,94.38
2022-11-21T01:27:26.867Z,94.14
2022-11-21T01:32:32.705Z,93.85
2022-11-21T01:37:38.368Z,93.75
2022-11-21T01:42:54.022Z,93.61
2022-11-21T01:47:59.791Z,93.73
2022-11-21T01:53:05.731Z,93.99
2022-11-21T01:58:12.405Z,94.07
2022-11-21T02:03:24.036Z,94.55
2022-11-21T02:08:30.648Z,94.67
2022-11-21T02:13:36.361Z,94.50
2022-11-21T02:18:42.203Z,94.45
2022-11-21T02:24:00.219Z,94.53
2022-11-21T02:29:06.457Z,94.13
2022-11-21T02:34:12.283Z,93.88
2022-11-21T02:39:26.196Z,93.79
2022-11-21T02:44:38.585Z,93.58
2022-11-21T02:49:50.824Z,93.58
2022-11-21T02:54:56.434Z,93.31
2022-11-21T03:00:02.279Z,93.23
2022-11-21T03:05:10.720Z,93.49
2022-11-21T03:10:17.358Z,93.25
2022-11-21T03:15:23.061Z,92.93
2022-11-21T03:20:28.696Z,92.52
2022-11-21T03:25:34.416Z,92.57
2022-11-21T03:30:40.008Z,93.08
2022-11-21T03:35:45.621Z,93.01
2022-11-21T03:40:51.311Z,92.69
2022-11-21T03:45:57.536Z,92.94
2022-11-21T03:51:03.206Z,92.96
2022-11-21T03:56:08.960Z,92.70
2022-11-21T04:01:15.774Z,92.21
2022-11-21T04:06:22.822Z,92.02
2022-11-21T04:11:28.566Z,92.62
2022-11-21T04:16:34.183Z,93.07
2022-11-21T04:21:40.115Z,93.42
2022-11-21T04:26:46.004Z,93.18
2022-11-21T04:31:51.720Z,93.05
2022-11-21T04:36:58.047Z,93.11
2022-11-21T04:42:03.880Z,92.89
2022-11-21T04:47:09.679Z,92.46
2022-11-21T04:52:15.469Z,92.25
2022-11-21T04:57:21.781Z,92.44
2022-11-21T05:02:27.407Z,92.74
2022-11-21T05:07:33.084Z,93.31
2022-11-21T05:12:57.611Z,93.40
2022-11-21T05:18:03.389Z,92.69
2022-11-21T05:23:09.088Z,92.86
2022-11-21T05:28:14.996Z,93.25
2022-11-21T05:33:20.668Z,93.14
2022-11-21T05:38:26.419Z,92.28
2022-11-21T05:43:47.546Z,92.15
2022-11-21T05:48:54.564Z,91.99
2022-11-21T05:54:01.288Z,91.83
2022-11-21T05:59:08.484Z,91.97
2022-11-21T06:04:14.229Z,92.38
2022-11-21T06:09:19.829Z,92.53
2022-11-21T06:14:25.604Z,93.27
2022-11-21T06:19:31.422Z,94.06
2022-11-21T06:24:37.209Z,94.06
2022-11-21T06:29:43.023Z,93.64
2022-11-21T06:34:48.648Z,93.81
2022-11-21T06:39:54.267Z,94.47
2022-11-21T06:44:59.868Z,94.79
2022-11-21T06:50:06.304Z,94.80
2022-11-21T06:55:13.309Z,94.57
2022-11-21T07:00:21.081Z,94.16
2022-11-21T07:05:26.848Z,93.74
2022-11-21T07:10:32.673Z,93.48
2022-11-21T07:15:38.244Z,93.35
2022-11-21T07:20:43.993Z,93.24
2022-11-21T07:25:49.897Z,93.03
2022-11-21T07:30:58.183Z,92.77
2022-11-21T07:36:04.032Z,92.56
2022-11-21T07:41:10.268Z,92.28
2022-11-21T07:46:16.043Z,92.24
2022-11-21T07:51:21.904Z,92.25
2022-11-21T07:56:27.771Z,91.89
2022-11-21T08:01:33.988Z,91.50
2022-11-21T08:06:39.603Z,91.28
2022-11-21T08:11:45.176Z,90.95
2022-11-21T08:16:53.320Z,90.40
2022-11-21T08:21:59.514Z,89.90
2022-11-21T08:27:05.578Z,88.81
2022-11-21T08:32:11.393Z,87.20
2022-11-21T08:37:17.194Z,86.81
2022-11-21T08:42:22.877Z,86.90
2022-11-21T08:47:28.704Z,86.50
2022-11-21T08:52:34.422Z,86.66
2022-11-21T08:57:40.769Z,86.60
2022-11-21T09:02:46.464Z,86.41
2022-11-21T09:07:57.777Z,86.11
2022-11-21T09:13:03.620Z,85.12
2022-11-21T09:18:10.716Z,84.40
2022-11-21T09:23:17.842Z,83.68
2022-11-21T09:28:23.710Z,83.27
2022-11-21T09:33:29.461Z,81.55
2022-11-21T09:38:35.073Z,78.62
2022-11-21T09:43:55.634Z,76.02
2022-11-21T09:49:05.402Z,73.66
2022-11-21T09:54:20.416Z,73.16
2022-11-21T09:59:34.232Z,73.34
2022-11-21T10:04:40.110Z,73.11
2022-11-21T10:10:02.395Z,72.89
2022-11-21T10:15:25.225Z,73.32
2022-11-21T10:20:48.693Z,75.30
2022-11-21T10:26:02.418Z,75.43
2022-11-21T10:31:11.492Z,74.88
2022-11-21T10:36:25.864Z,74.55
2022-11-21T10:41:44.671Z,73.61
2022-11-21T10:46:57.983Z,73.22
2022-11-21T10:52:11.441Z,71.96
2022-11-21T10:57:19.689Z,70.83
2022-11-21T11:02:26.594Z,70.11
2022-11-21T11:07:32.592Z,70.21
2022-11-21T11:12:57.364Z,70.45
2022-11-21T11:18:09.385Z,70.08
2022-11-21T11:23:26.282Z,70.32
2022-11-21T11:28:37.784Z,70.36
2022-11-21T11:33:52.779Z,70.33
2022-11-21T11:39:00.114Z,70.82
2022-11-21T11:44:33.212Z,70.66
2022-11-21T11:50:15.721Z,70.53
2022-11-21T11:55:29.888Z,71.38
2022-11-21T12:00:46.708Z,71.94
2022-11-21T12:06:01.629Z,71.99
2022-11-21T12:11:37.629Z,72.45
2022-11-21T12:16:43.826Z,72.85
2022-11-21T12:21:49.534Z,72.80
2022-11-21T12:27:04.271Z,72.83
2022-11-21T12:32:28.605Z,73.19
2022-11-21T12:37:48.173Z,73.50
2022-11-21T12:43:07.856Z,74.02
2022-11-21T12:48:59.319Z,73.61
2022-11-21T12:54:31.808Z,73.59
2022-11-21T12:59:49.516Z,74.14
2022-11-21T13:04:57.723Z,74.57
2022-11-21T13:10:05.119Z,74.94
2022-11-21T13:15:24.628Z,75.03
2022-11-21T13:20:37.578Z,75.38
2022-11-21T13:25:47.974Z,75.83
2022-11-21T13:30:55.272Z,76.08
2022-11-21T13:36:02.650Z,76.67
2022-11-21T13:41:27.922Z,77.11
2022-11-21T13:47:00.378Z,77.42
2022-11-21T13:52:11.500Z,77.62
2022-11-21T13:57:36.382Z,78.01
2022-11-21T14:03:03.048Z,78.36
2022-11-21T14:08:19.546Z,78.89
2022-11-21T14:13:30.470Z,79.36
2022-11-21T14:18:38.347Z,79.62
2022-11-21T14:23:47.149Z,79.79
2022-11-21T14:28:53.061Z,80.12
2022-11-21T14:33:59.244Z,80.45
2022-11-21T14:44:35.886Z,81.19
2022-11-21T14:49:48.596Z,81.43
2022-11-21T14:55:28.599Z,81.65
2022-11-21T15:06:04.569Z,82.57
2022-11-21T15:11:12.703Z,83.07
2022-11-21T15:16:18.722Z,83.28
2022-11-21T15:21:24.724Z,83.58
2022-11-21T15:26:33.177Z,83.96
2022-11-21T15:31:38.966Z,84.18
2022-11-21T15:36:45.003Z,84.58
2022-11-21T15:41:50.656Z,84.93
2022-11-21T15:46:56.432Z,85.09
2022-11-21T15:52:10.226Z,85.24
2022-11-21T15:57:17.414Z,85.51
2022-11-21T16:02:23.646Z,85.72
2022-11-21T16:07:29.902Z,86.11
2022-11-21T16:12:35.918Z,86.27
2022-11-21T16:17:41.762Z,86.30
2022-11-21T16:22:48.218Z,86.45
2022-11-21T16:27:55.977Z,86.71
2022-11-21T16:33:04.138Z,87.03
2022-11-21T16:38:10.426Z,87.20
2022-11-21T16:43:16.203Z,87.38
2022-11-21T16:48:23.530Z,87.73
2022-11-21T16:53:31.936Z,87.99
2022-11-21T16:58:40.494Z,88.32
2022-11-21T17:03:48.137Z,88.49
2022-11-21T17:08:54.385Z,88.67
2022-11-21T17:14:04.612Z,88.69
2022-11-21T17:19:12.567Z,88.73
2022-11-21T17:24:18.526Z,88.95
2022-11-21T17:29:24.396Z,88.99
2022-11-21T17:34:33.276Z,89.09
2022-11-21T17:39:39.262Z,89.07
2022-11-21T17:44:45.056Z,89.17
2022-11-21T17:49:50.858Z,89.37
2022-11-21T17:54:56.621Z,89.39
2022-11-21T18:00:02.526Z,89.40
2022-11-21T18:05:10.512Z,89.49
2022-11-21T18:10:41.654Z,89.71
2022-11-21T18:15:43.130Z,89.86
2022-11-21T18:20:49.544Z,89.77
2022-11-21T18:25:55.193Z,89.86
2022-11-21T18:31:09.106Z,89.91
2022-11-21T18:36:15.136Z,89.96
2022-11-21T18:41:22.592Z,89.99
2022-11-21T18:46:30.378Z,90.08
2022-11-21T18:51:36.925Z,90.03
2022-11-21T18:56:42.735Z,90.20
2022-11-21T19:01:49.919Z,90.28
2022-11-21T19:06:56.732Z,90.47
2022-11-21T19:12:02.409Z,90.58
2022-11-21T19:17:08.538Z,90.59
2022-11-21T19:22:14.545Z,90.75
2022-11-21T19:27:24.361Z,90.72
2022-11-21T19:32:34.089Z,90.71
2022-11-21T19:37:39.870Z,90.90
2022-11-21T19:42:45.779Z,90.84
2022-11-21T19:47:57.117Z,90.95
2022-11-21T19:53:02.866Z,91.05
2022-11-21T19:58:08.544Z,90.98
2022-11-21T20:03:14.238Z,91.08
2022-11-21T20:08:19.979Z,91.30
2022-11-21T20:13:25.768Z,91.41
2022-11-21T20:18:31.852Z,91.61
2022-11-21T20:23:37.669Z,91.69
2022-11-21T20:28:43.751Z,91.78
2022-11-21T20:33:51.536Z,91.99
2022-11-21T20:38:58.793Z,92.21
2022-11-21T20:49:33.616Z,92.34
2022-11-21T20:54:39.512Z,92.43
2022-11-21T20:59:45.298Z,92.49
2022-11-21T21:04:51.089Z,92.53
2022-11-21T21:09:57.123Z,92.57
2022-11-21T21:15:02.884Z,92.78
2022-11-21T21:20:11.188Z,92.99
2022-11-21T21:25:17.222Z,93.12
2022-11-21T21:30:22.984Z,93.20
2022-11-21T21:35:28.694Z,93.29
2022-11-21T21:40:34.498Z,93.42
2022-11-21T21:45:40.322Z,93.54
2022-11-21T21:50:46.206Z,93.53
2022-11-21T21:55:51.923Z,93.48
2022-11-21T22:01:05.152Z,93.47
2022-11-21T22:06:13.170Z,93.45
2022-11-21T22:11:20.286Z,93.45
2022-11-21T22:16:27.067Z,93.44
2022-11-21T22:21:35.345Z,93.46
2022-11-21T22:26:41.261Z,93.53
2022-11-21T22:31:47.113Z,93.49
2022-11-21T22:36:52.938Z,93.37
2022-11-21T22:42:00.059Z,93.47
2022-11-21T22:47:06.100Z,93.47
2022-11-21T22:52:12.244Z,93.53
2022-11-21T22:57:19.169Z,93.53
2022-11-21T23:02:24.874Z,93.55
2022-11-21T23:07:31.817Z,93.70
2022-11-21T23:12:38.078Z,93.66
2022-11-21T23:17:47.189Z,93.52
2022-11-21T23:22:59.102Z,93.43
2022-11-21T23:28:05.194Z,93.58
2022-11-21T23:33:11.240Z,93.72
2022-11-21T23:38:18.168Z,93.80
2022-11-21T23:43:24.024Z,93.64
2022-11-21T23:48:30.224Z,93.53
2022-11-21T23:53:36.306Z,93.81
2022-11-21T23:58:42.037Z,93.84
